createdAt,value
2019-02-24T00:01:00.266Z,477.90
2019-02-24T00:03:29.946Z,479.20
2019-02-24T00:05:59.624Z,476.73
2019-02-24T00:08:29.793Z,478.92
2019-02-24T00:10:59.403Z,481.57
2019-02-24T00:13:29.276Z,477.93
2019-02-24T00:15:59.024Z,481.75
2019-02-24T00:18:28.819Z,475.02
2019-02-24T00:20:58.523Z,478.05
2019-02-24T00:23:28.210Z,476.90
2019-02-24T00:25:57.852Z,481.27
2019-02-24T00:28:27.537Z,490.25
2019-02-24T00:30:57.130Z,486.38
2019-02-24T00:33:26.933Z,483.40
2019-02-24T00:35:56.665Z,485.67
2019-02-24T00:38:26.376Z,491.05
2019-02-24T00:40:56.054Z,480.43
2019-02-24T00:43:25.784Z,485.40
2019-02-24T00:45:55.402Z,481.78
2019-02-24T00:48:25.129Z,478.42
2019-02-24T00:50:54.796Z,485.82
2019-02-24T00:53:24.558Z,482.52
2019-02-24T00:55:54.219Z,475.72
2019-02-24T00:58:23.840Z,471.63
2019-02-24T01:00:53.582Z,473.28
2019-02-24T01:03:23.200Z,471.60
2019-02-24T01:05:53.051Z,475.50
2019-02-24T01:08:22.852Z,482.75
2019-02-24T01:10:52.527Z,474.68
2019-02-24T01:13:22.253Z,488.50
2019-02-24T01:15:51.938Z,483.60
2019-02-24T01:18:21.743Z,483.12
2019-02-24T01:20:51.423Z,481.97
2019-02-24T01:23:21.139Z,484.37
2019-02-24T01:25:50.834Z,485.85
2019-02-24T01:28:25.302Z,487.05
2019-02-24T01:30:51.811Z,475.55
2019-02-24T01:33:21.568Z,483.00
2019-02-24T01:35:51.187Z,485.85
2019-02-24T01:38:20.871Z,479.18
2019-02-24T01:40:50.701Z,481.78
2019-02-24T01:43:20.398Z,478.88
2019-02-24T01:45:50.100Z,476.27
2019-02-24T01:48:21.130Z,471.12
2019-02-24T01:50:50.815Z,473.10
2019-02-24T01:53:20.525Z,466.82
2019-02-24T01:55:50.149Z,473.37
2019-02-24T01:58:19.995Z,469.37
2019-02-24T02:00:49.656Z,468.85
2019-02-24T02:03:19.371Z,470.63
2019-02-24T02:05:48.994Z,468.63
2019-02-24T02:08:18.847Z,472.33
2019-02-24T02:10:48.458Z,469.95
2019-02-24T02:13:18.305Z,474.82
2019-02-24T02:15:48.228Z,476.63
2019-02-24T02:18:18.044Z,475.92
2019-02-24T02:20:47.865Z,475.12
2019-02-24T02:23:17.612Z,472.80
2019-02-24T02:25:47.288Z,479.62
2019-02-24T02:28:17.049Z,480.70
2019-02-24T02:30:46.728Z,485.40
2019-02-24T02:33:16.342Z,479.40
2019-02-24T02:35:46.274Z,472.98
2019-02-24T02:38:15.973Z,470.00
2019-02-24T02:40:45.565Z,473.00
2019-02-24T02:43:15.172Z,470.10
2019-02-24T02:45:44.961Z,477.87
2019-02-24T02:48:16.222Z,466.52
2019-02-24T02:50:45.816Z,465.20
2019-02-24T02:53:15.591Z,469.80
2019-02-24T02:55:45.177Z,470.02
2019-02-24T02:58:14.799Z,472.25
2019-02-24T03:00:44.613Z,471.05
2019-02-24T03:03:14.226Z,478.50
2019-02-24T03:05:45.571Z,470.68
2019-02-24T03:08:15.546Z,478.70
2019-02-24T03:10:45.188Z,481.02
2019-02-24T03:13:14.767Z,480.70
2019-02-24T03:15:44.662Z,494.23
2019-02-24T03:18:14.317Z,479.62
2019-02-24T03:20:44.006Z,483.37
2019-02-24T03:23:13.623Z,497.60
2019-02-24T03:25:43.315Z,485.63
2019-02-24T03:28:12.911Z,480.00
2019-02-24T03:30:42.562Z,479.10
2019-02-24T03:33:12.344Z,477.78
2019-02-24T03:35:42.143Z,473.05
2019-02-24T03:38:11.739Z,475.42
2019-02-24T03:40:41.601Z,472.63
2019-02-24T03:43:11.356Z,481.43
2019-02-24T03:45:41.045Z,476.50
2019-02-24T03:48:10.634Z,476.93
2019-02-24T03:50:40.352Z,478.08
2019-02-24T03:53:10.036Z,485.15
2019-02-24T03:55:39.813Z,475.27
2019-02-24T03:58:09.493Z,479.10
2019-02-24T04:00:39.371Z,472.10
2019-02-24T04:03:09.090Z,473.55
2019-02-24T04:05:38.769Z,478.95
2019-02-24T04:08:08.367Z,481.90
2019-02-24T04:10:38.117Z,476.30
2019-02-24T04:13:07.849Z,469.32
2019-02-24T04:15:37.632Z,478.42
2019-02-24T04:18:07.222Z,476.37
2019-02-24T04:20:36.986Z,479.50
2019-02-24T04:23:06.578Z,471.37
2019-02-24T04:25:36.446Z,465.70
2019-02-24T04:28:06.956Z,474.00
2019-02-24T04:30:36.747Z,467.15
2019-02-24T04:33:06.347Z,477.32
2019-02-24T04:35:35.955Z,474.52
2019-02-24T04:38:05.550Z,473.50
2019-02-24T04:40:35.160Z,478.92
2019-02-24T04:43:04.805Z,476.25
2019-02-24T04:45:34.490Z,484.05
2019-02-24T04:48:04.199Z,482.17
2019-02-24T04:50:33.891Z,479.38
2019-02-24T04:53:04.766Z,476.80
2019-02-24T04:55:34.463Z,483.45
2019-02-24T04:58:04.129Z,485.50
2019-02-24T05:00:33.820Z,478.27
2019-02-24T05:03:03.526Z,472.25
2019-02-24T05:05:33.142Z,475.02
2019-02-24T05:08:02.862Z,475.32
2019-02-24T05:10:32.622Z,472.43
2019-02-24T05:13:02.368Z,474.38
2019-02-24T05:15:31.981Z,468.63
2019-02-24T05:18:01.681Z,473.73
2019-02-24T05:20:31.366Z,471.22
2019-02-24T05:23:01.193Z,465.15
2019-02-24T05:25:30.826Z,463.55
2019-02-24T05:28:00.543Z,468.37
2019-02-24T05:30:30.233Z,469.62
2019-02-24T05:33:00.065Z,465.62
2019-02-24T05:35:29.738Z,465.38
2019-02-24T05:37:59.436Z,489.10
2019-02-24T05:40:29.050Z,475.53
2019-02-24T05:42:58.650Z,474.58
2019-02-24T05:45:28.249Z,475.92
2019-02-24T05:47:57.844Z,472.40
2019-02-24T05:50:27.519Z,476.67
2019-02-24T05:52:57.187Z,479.65
2019-02-24T05:55:26.917Z,476.73
2019-02-24T05:57:56.587Z,474.70
2019-02-24T06:00:26.377Z,472.25
2019-02-24T06:02:55.966Z,484.25
2019-02-24T06:05:25.820Z,478.02
2019-02-24T06:07:55.418Z,479.20
2019-02-24T06:10:25.207Z,482.00
2019-02-24T06:12:54.819Z,479.25
2019-02-24T06:15:24.434Z,478.45
2019-02-24T06:17:54.095Z,474.73
2019-02-24T06:20:23.707Z,471.75
2019-02-24T06:22:53.303Z,473.02
2019-02-24T06:25:22.937Z,478.60
2019-02-24T06:27:52.682Z,477.28
2019-02-24T06:30:22.341Z,478.58
2019-02-24T06:32:52.116Z,475.38
2019-02-24T06:35:21.781Z,474.05
2019-02-24T06:37:51.509Z,470.68
2019-02-24T06:40:21.126Z,472.83
2019-02-24T06:42:50.740Z,478.25
2019-02-24T06:45:20.360Z,472.90
2019-02-24T06:47:50.027Z,468.20
2019-02-24T06:50:19.659Z,461.13
2019-02-24T06:52:49.301Z,469.30
2019-02-24T06:55:19.067Z,468.00
2019-02-24T06:57:48.654Z,469.28
2019-02-24T07:00:18.386Z,471.53
2019-02-24T07:02:48.046Z,471.50
2019-02-24T07:05:17.747Z,478.15
2019-02-24T07:07:47.492Z,475.10
2019-02-24T07:10:17.099Z,475.68
2019-02-24T07:12:46.803Z,480.52
2019-02-24T07:15:16.411Z,477.28
2019-02-24T07:17:46.090Z,476.30
2019-02-24T07:20:15.702Z,471.95
2019-02-24T07:22:45.386Z,479.15
2019-02-24T07:25:14.983Z,473.73
2019-02-24T07:27:44.590Z,479.97
2019-02-24T07:30:22.844Z,477.95
2019-02-24T07:32:45.633Z,475.75
2019-02-24T07:35:15.386Z,472.37
2019-02-24T07:37:45.686Z,476.13
2019-02-24T07:40:15.374Z,483.87
2019-02-24T07:42:45.138Z,469.20
2019-02-24T07:45:14.808Z,481.67
2019-02-24T07:47:44.500Z,479.40
2019-02-24T07:50:14.246Z,473.28
2019-02-24T07:52:43.949Z,481.85
2019-02-24T07:55:13.693Z,476.40
2019-02-24T07:57:43.401Z,475.00
2019-02-24T08:00:13.130Z,472.98
2019-02-24T08:02:42.750Z,484.07
2019-02-24T08:05:13.319Z,476.52
2019-02-24T08:07:42.985Z,475.38
2019-02-24T08:10:12.745Z,479.55
2019-02-24T08:12:42.505Z,487.70
2019-02-24T08:15:12.248Z,478.55
2019-02-24T08:17:42.034Z,482.27
2019-02-24T08:20:11.636Z,486.90
2019-02-24T08:22:41.338Z,483.98
2019-02-24T08:25:11.063Z,486.77
2019-02-24T08:27:40.841Z,479.75
2019-02-24T08:30:12.312Z,477.97
2019-02-24T08:32:42.635Z,484.60
2019-02-24T08:35:12.353Z,483.25
2019-02-24T08:37:41.969Z,489.43
2019-02-24T08:40:11.778Z,493.13
2019-02-24T08:42:41.552Z,509.67
2019-02-24T08:45:11.193Z,503.77
2019-02-24T08:47:40.885Z,497.67
2019-02-24T08:50:11.117Z,492.42
2019-02-24T08:52:40.791Z,504.27
2019-02-24T08:55:10.471Z,498.28
2019-02-24T08:57:40.236Z,509.00
2019-02-24T09:00:12.364Z,511.12
2019-02-24T09:02:42.070Z,500.15
2019-02-24T09:05:12.559Z,509.20
2019-02-24T09:07:42.240Z,502.17
2019-02-24T09:10:11.913Z,507.80
2019-02-24T09:12:41.594Z,515.42
2019-02-24T09:15:14.963Z,501.13
2019-02-24T09:17:44.816Z,517.42
2019-02-24T09:20:14.984Z,516.12
2019-02-24T09:22:44.688Z,515.50
2019-02-24T09:25:14.632Z,511.68
2019-02-24T09:27:44.253Z,503.05
2019-02-24T09:30:14.277Z,507.60
2019-02-24T09:32:44.109Z,510.78
2019-02-24T09:35:13.797Z,522.67
2019-02-24T09:37:43.459Z,539.05
2019-02-24T09:40:13.635Z,540.67
2019-02-24T09:42:44.240Z,521.75
2019-02-24T09:45:14.155Z,527.80
2019-02-24T09:47:47.139Z,532.97
2019-02-24T09:50:15.757Z,516.73
2019-02-24T09:52:45.368Z,512.45
2019-02-24T09:55:15.125Z,519.02
2019-02-24T09:57:44.751Z,515.15
2019-02-24T10:00:15.475Z,537.90
2019-02-24T10:02:45.206Z,528.85
2019-02-24T10:05:15.830Z,530.37
2019-02-24T10:07:45.595Z,533.02
2019-02-24T10:10:15.433Z,536.85
2019-02-24T10:12:45.205Z,528.90
2019-02-24T10:15:15.418Z,524.92
2019-02-24T10:17:45.084Z,521.92
2019-02-24T10:20:14.810Z,536.58
2019-02-24T10:22:44.559Z,541.05
2019-02-24T10:25:14.333Z,530.50
2019-02-24T10:27:44.043Z,559.73
2019-02-24T10:30:17.317Z,561.38
2019-02-24T10:32:46.930Z,545.25
2019-02-24T10:35:17.580Z,552.05
2019-02-24T10:37:47.336Z,537.83
2019-02-24T10:40:17.472Z,537.10
2019-02-24T10:42:47.095Z,558.33
2019-02-24T10:45:18.792Z,547.92
2019-02-24T10:47:48.420Z,557.62
2019-02-24T10:50:18.259Z,554.08
2019-02-24T10:52:47.954Z,556.70
2019-02-24T10:55:17.704Z,557.58
2019-02-24T10:57:47.392Z,557.38
2019-02-24T11:00:18.789Z,572.13
2019-02-24T11:02:48.523Z,588.17
2019-02-24T11:05:18.574Z,599.83
2019-02-24T11:07:48.296Z,602.08
2019-02-24T11:10:18.048Z,609.83
2019-02-24T11:12:47.737Z,603.85
2019-02-24T11:15:17.476Z,598.50
2019-02-24T11:17:48.132Z,602.75
2019-02-24T11:20:18.524Z,606.00
2019-02-24T11:22:48.264Z,621.60
2019-02-24T11:25:18.028Z,620.33
2019-02-24T11:27:47.742Z,625.25
2019-02-24T11:30:17.435Z,625.05
2019-02-24T11:32:47.115Z,633.62
2019-02-24T11:35:16.913Z,650.02
2019-02-24T11:37:46.618Z,659.52
2019-02-24T11:40:19.218Z,679.10
2019-02-24T11:42:48.950Z,680.58
2019-02-24T11:45:19.605Z,683.02
2019-02-24T11:47:49.348Z,681.15
2019-02-24T11:50:18.974Z,691.83
2019-02-24T11:52:48.685Z,683.48
2019-02-24T11:55:19.431Z,687.42
2019-02-24T11:57:49.050Z,684.67
2019-02-24T12:00:18.880Z,691.48
2019-02-24T12:02:48.558Z,684.85
2019-02-24T12:05:19.151Z,693.97
2019-02-24T12:07:48.758Z,708.75
2019-02-24T12:10:18.469Z,717.50
2019-02-24T12:12:48.091Z,725.60
2019-02-24T12:15:17.749Z,736.30
2019-02-24T12:17:47.523Z,737.42
2019-02-24T12:20:17.860Z,732.08
2019-02-24T12:22:47.576Z,746.23
2019-02-24T12:25:17.340Z,762.55
2019-02-24T12:27:47.106Z,770.08
2019-02-24T12:30:17.556Z,781.20
2019-02-24T12:32:47.310Z,780.05
2019-02-24T12:35:16.993Z,786.67
2019-02-24T12:37:46.607Z,772.23
2019-02-24T12:40:16.719Z,772.73
2019-02-24T12:42:46.485Z,778.45
2019-02-24T12:45:16.146Z,774.00
2019-02-24T12:47:46.687Z,771.85
2019-02-24T12:50:17.419Z,766.85
2019-02-24T12:52:47.241Z,764.63
2019-02-24T12:55:16.937Z,786.58
2019-02-24T12:57:46.757Z,796.37
2019-02-24T13:00:19.722Z,778.85
2019-02-24T13:02:49.495Z,785.23
2019-02-24T13:05:19.308Z,795.80
2019-02-24T13:07:48.917Z,813.63
2019-02-24T13:10:19.535Z,809.00
2019-02-24T13:12:50.304Z,807.70
2019-02-24T13:15:20.123Z,817.15
2019-02-24T13:17:49.863Z,830.45
2019-02-24T13:20:19.520Z,828.93
2019-02-24T13:22:49.304Z,825.38
2019-02-24T13:25:18.962Z,836.37
2019-02-24T13:27:48.647Z,832.45
2019-02-24T13:30:18.305Z,838.33
2019-02-24T13:32:47.929Z,831.05
2019-02-24T13:35:17.733Z,856.12
2019-02-24T13:37:47.335Z,851.25
2019-02-24T13:40:17.430Z,835.82
2019-02-24T13:42:47.286Z,840.47
2019-02-24T13:45:21.122Z,835.75
2019-02-24T13:47:50.916Z,851.85
2019-02-24T13:50:20.566Z,866.67
2019-02-24T13:52:50.205Z,865.95
2019-02-24T13:55:20.042Z,868.60
2019-02-24T13:57:49.868Z,864.63
2019-02-24T14:00:21.376Z,860.05
2019-02-24T14:02:51.202Z,864.50
2019-02-24T14:05:20.990Z,867.07
2019-02-24T14:07:50.697Z,853.00
2019-02-24T14:10:20.512Z,858.77
2019-02-24T14:12:50.290Z,858.77
2019-02-24T14:15:20.031Z,852.15
2019-02-24T14:17:49.713Z,848.08
2019-02-24T14:20:19.654Z,849.10
2019-02-24T14:22:49.489Z,851.05
2019-02-24T14:25:19.092Z,847.00
2019-02-24T14:27:49.185Z,843.47
2019-02-24T14:30:19.147Z,839.23
2019-02-24T14:32:48.864Z,842.25
2019-02-24T14:35:26.094Z,838.67
2019-02-24T14:37:55.924Z,844.45
2019-02-24T14:40:25.542Z,854.33
2019-02-24T14:42:55.242Z,857.55
2019-02-24T14:45:25.243Z,860.37
2019-02-24T14:47:55.041Z,882.55
2019-02-24T14:50:24.643Z,897.23
2019-02-24T14:52:54.389Z,889.60
2019-02-24T14:55:24.112Z,896.05
2019-02-24T14:57:53.801Z,893.07
2019-02-24T15:00:24.153Z,896.90
2019-02-24T15:02:53.803Z,894.48
2019-02-24T15:05:23.441Z,902.73
2019-02-24T15:07:53.096Z,898.93
2019-02-24T15:10:23.933Z,890.53
2019-02-24T15:12:53.847Z,883.35
2019-02-24T15:15:32.949Z,879.12
2019-02-24T15:17:59.398Z,858.60
2019-02-24T15:20:29.230Z,847.55
2019-02-24T15:22:58.842Z,839.42
2019-02-24T15:25:28.620Z,827.20
2019-02-24T15:27:58.217Z,819.15
2019-02-24T15:30:36.601Z,815.00
2019-02-24T15:33:06.319Z,808.33
2019-02-24T15:35:36.074Z,796.10
2019-02-24T15:38:05.803Z,796.40
2019-02-24T15:40:35.435Z,789.67
2019-02-24T15:43:05.106Z,773.90
2019-02-24T15:45:34.880Z,792.53
2019-02-24T15:48:04.621Z,784.90
2019-02-24T15:50:34.353Z,791.80
2019-02-24T15:53:04.048Z,777.73
2019-02-24T15:55:33.807Z,787.80
2019-02-24T15:58:03.402Z,788.40
2019-02-24T16:00:33.166Z,776.90
2019-02-24T16:03:02.826Z,786.15
2019-02-24T16:05:32.623Z,776.63
2019-02-24T16:08:02.300Z,759.95
2019-02-24T16:10:32.015Z,756.55
2019-02-24T16:13:01.682Z,765.50
2019-02-24T16:15:31.371Z,755.92
2019-02-24T16:18:01.121Z,750.75
2019-02-24T16:20:32.960Z,738.00
2019-02-24T16:23:02.703Z,745.80
2019-02-24T16:25:32.540Z,744.02
2019-02-24T16:28:02.523Z,744.90
2019-02-24T16:30:32.137Z,733.00
2019-02-24T16:33:09.970Z,736.07
2019-02-24T16:35:33.114Z,731.93
2019-02-24T16:38:02.716Z,737.00
2019-02-24T16:40:32.467Z,713.65
2019-02-24T16:43:02.140Z,711.25
2019-02-24T16:45:32.403Z,714.65
2019-02-24T16:48:02.063Z,701.87
2019-02-24T16:50:31.891Z,703.33
2019-02-24T16:53:01.560Z,705.60
2019-02-24T16:55:31.351Z,711.95
2019-02-24T16:58:01.032Z,693.90
2019-02-24T17:00:30.830Z,689.02
2019-02-24T17:03:00.423Z,683.90
2019-02-24T17:05:30.190Z,680.10
2019-02-24T17:07:59.954Z,672.83
2019-02-24T17:10:30.215Z,662.05
2019-02-24T17:13:01.687Z,664.02
2019-02-24T17:15:31.183Z,645.95
2019-02-24T17:18:00.839Z,645.50
2019-02-24T17:20:31.100Z,644.63
2019-02-24T17:23:00.836Z,640.67
2019-02-24T17:25:30.539Z,649.23
2019-02-24T17:28:00.378Z,627.05
2019-02-24T17:30:30.131Z,626.00
2019-02-24T17:32:59.819Z,610.35
2019-02-24T17:35:29.563Z,629.00
2019-02-24T17:37:59.168Z,611.05
2019-02-24T17:40:28.782Z,601.05
2019-02-24T17:42:58.647Z,587.80
2019-02-24T17:45:28.407Z,600.67
2019-02-24T17:47:58.067Z,587.00
2019-02-24T17:50:27.788Z,581.80
2019-02-24T17:52:57.516Z,578.58
2019-02-24T17:55:27.227Z,570.45
2019-02-24T17:57:56.995Z,576.05
2019-02-24T18:00:29.560Z,579.45
2019-02-24T18:02:59.385Z,574.42
2019-02-24T18:05:29.134Z,574.47
2019-02-24T18:07:58.751Z,585.90
2019-02-24T18:10:28.493Z,579.42
2019-02-24T18:12:58.339Z,568.42
2019-02-24T18:15:28.860Z,572.65
2019-02-24T18:17:58.702Z,570.00
2019-02-24T18:20:28.392Z,572.48
2019-02-24T18:22:58.142Z,572.00
2019-02-24T18:25:27.746Z,574.12
2019-02-24T18:27:57.458Z,576.30
2019-02-24T18:30:28.997Z,569.23
2019-02-24T18:32:58.717Z,570.17
2019-02-24T18:35:29.302Z,572.50
2019-02-24T18:37:59.144Z,574.05
2019-02-24T18:40:28.824Z,562.83
2019-02-24T18:43:00.430Z,562.20
2019-02-24T18:45:29.817Z,565.98
2019-02-24T18:47:59.567Z,562.02
2019-02-24T18:50:29.324Z,557.85
2019-02-24T18:52:59.830Z,559.35
2019-02-24T18:55:29.510Z,565.15
2019-02-24T18:58:00.436Z,559.08
2019-02-24T19:00:30.276Z,564.40
2019-02-24T19:03:00.039Z,569.47
2019-02-24T19:05:29.709Z,568.15
2019-02-24T19:07:59.465Z,557.17
2019-02-24T19:10:29.232Z,558.87
2019-02-24T19:12:58.929Z,556.17
2019-02-24T19:15:28.672Z,564.95
2019-02-24T19:17:58.358Z,554.75
2019-02-24T19:20:28.050Z,545.10
2019-02-24T19:22:57.781Z,549.38
2019-02-24T19:25:27.478Z,548.90
2019-02-24T19:27:57.130Z,547.63
2019-02-24T19:30:26.798Z,547.87
2019-02-24T19:32:56.543Z,548.05
2019-02-24T19:35:26.214Z,551.77
2019-02-24T19:37:56.096Z,547.30
2019-02-24T19:40:25.678Z,546.87
2019-02-24T19:42:55.421Z,549.77
2019-02-24T19:45:28.105Z,551.10
2019-02-24T19:47:57.814Z,545.83
2019-02-24T19:50:27.479Z,543.48
2019-02-24T19:52:57.167Z,545.45
2019-02-24T19:55:26.923Z,554.80
2019-02-24T19:57:56.770Z,543.70
2019-02-24T20:00:26.798Z,547.48
2019-02-24T20:02:56.458Z,551.17
2019-02-24T20:05:26.283Z,543.60
2019-02-24T20:07:56.093Z,545.77
2019-02-24T20:10:27.356Z,544.25
2019-02-24T20:12:57.200Z,540.38
2019-02-24T20:15:27.059Z,535.35
2019-02-24T20:17:56.819Z,538.98
2019-02-24T20:20:26.619Z,539.67
2019-02-24T20:22:56.262Z,536.90
2019-02-24T20:25:26.151Z,539.00
2019-02-24T20:27:56.192Z,542.22
2019-02-24T20:30:31.625Z,542.25
2019-02-24T20:33:01.359Z,557.67
2019-02-24T20:35:31.053Z,563.27
2019-02-24T20:38:00.744Z,565.60
2019-02-24T20:40:30.505Z,561.55
2019-02-24T20:43:00.313Z,571.08
2019-02-24T20:45:29.898Z,572.20
2019-02-24T20:47:59.640Z,568.25
2019-02-24T20:50:33.677Z,569.17
2019-02-24T20:53:03.527Z,565.98
2019-02-24T20:55:33.270Z,566.27
2019-02-24T20:58:02.968Z,570.38
2019-02-24T21:00:40.362Z,570.10
2019-02-24T21:03:10.004Z,563.67
2019-02-24T21:05:39.853Z,559.30
2019-02-24T21:08:09.472Z,563.70
2019-02-24T21:10:39.243Z,561.55
2019-02-24T21:13:09.075Z,562.35
2019-02-24T21:15:38.694Z,565.23
2019-02-24T21:18:08.502Z,556.63
2019-02-24T21:20:38.184Z,557.83
2019-02-24T21:23:07.785Z,553.77
2019-02-24T21:25:37.549Z,546.40
2019-02-24T21:28:07.303Z,542.72
2019-02-24T21:30:37.059Z,537.83
2019-02-24T21:33:06.763Z,545.08
2019-02-24T21:35:36.370Z,532.62
2019-02-24T21:38:06.050Z,552.28
2019-02-24T21:40:35.793Z,535.80
2019-02-24T21:43:05.609Z,521.83
2019-02-24T21:45:35.283Z,532.65
2019-02-24T21:48:05.029Z,527.28
2019-02-24T21:50:34.729Z,544.80
2019-02-24T21:53:04.380Z,543.80
2019-02-24T21:55:34.051Z,541.20
2019-02-24T21:58:04.424Z,535.00
2019-02-24T22:00:34.201Z,526.37
2019-02-24T22:03:04.052Z,534.25
2019-02-24T22:05:33.683Z,533.62
2019-02-24T22:08:03.521Z,536.67
2019-02-24T22:10:33.282Z,544.20
2019-02-24T22:13:05.386Z,544.10
2019-02-24T22:15:35.052Z,541.67
2019-02-24T22:18:04.866Z,532.38
2019-02-24T22:20:34.587Z,542.98
2019-02-24T22:23:04.290Z,541.25
2019-02-24T22:25:33.910Z,537.92
2019-02-24T22:28:03.725Z,543.33
2019-02-24T22:30:33.338Z,553.20
2019-02-24T22:33:03.055Z,572.63
2019-02-24T22:35:32.670Z,601.37
2019-02-24T22:38:02.338Z,619.13
2019-02-24T22:40:32.117Z,632.02
2019-02-24T22:43:01.970Z,645.73
2019-02-24T22:45:31.659Z,644.47
2019-02-24T22:48:03.033Z,655.10
2019-02-24T22:50:32.989Z,651.63
2019-02-24T22:53:02.661Z,656.20
2019-02-24T22:55:32.350Z,653.55
2019-02-24T22:58:02.114Z,654.70
2019-02-24T23:00:54.338Z,647.83
2019-02-24T23:03:26.976Z,656.30
2019-02-24T23:05:56.715Z,655.60
2019-02-24T23:08:26.435Z,661.88
2019-02-24T23:10:56.093Z,657.83
2019-02-24T23:13:25.837Z,658.75
2019-02-24T23:15:55.575Z,660.37
2019-02-24T23:18:25.614Z,659.70
2019-02-24T23:20:55.374Z,654.25
2019-02-24T23:23:25.064Z,659.45
2019-02-24T23:25:54.804Z,655.83
2019-02-24T23:28:24.602Z,660.78
2019-02-24T23:30:54.265Z,660.02
2019-02-24T23:33:23.926Z,659.03
2019-02-24T23:35:53.796Z,655.95
2019-02-24T23:38:23.459Z,657.40
2019-02-24T23:40:53.152Z,657.83
2019-02-24T23:43:22.763Z,660.50
2019-02-24T23:45:52.391Z,653.25
2019-02-24T23:48:22.049Z,662.55
2019-02-24T23:50:51.661Z,660.45
2019-02-24T23:53:21.323Z,663.20
2019-02-24T23:55:50.999Z,653.55
2019-02-24T23:58:21.652Z,655.17
